Latest Weather Observations for Edenhope

IDV60801

Issued at 5:05 pm EDT Saturday 25 October 2014 (issued every 30 minutes, with the page automatically refreshed every 10 minutes)

About weather observations | Map of weather stations | Latest weather observations for VIC | Other Formats
Station Details ID: 079099 Name: EDENHOPE AIRPORT Lat: -37.02 Lon: 141.27 Height: 155.0 m
Data from the previous 72 hours. | See also: Recent months at Edenhope
Date/Time
EDT
Temp
°C
App
Temp
°C
Dew
Point
Rel
Hum
%
Delta-T
°C
Wind Press
QNH
hPa
Press
MSL
hPa
Rain
since 9 am
mm
Dir
 
Spd
km/h
Gust
km/h
Spd
kts
Gust
kts
25/05:00pm 23.9 21.8 11.3 45 7.1 S 13 28 7 15 - - 0.0
25/04:30pm 23.9 21.6 10.6 43 7.4 S 13 20 7 11 - - 0.0
25/04:00pm 24.4 21.7 10.3 41 7.8 S 15 22 8 12 - - 0.0
25/03:30pm 24.3 22.7 10.2 41 7.8 SW 9 15 5 8 - - 0.0
25/03:00pm 24.8 22.7 9.9 39 8.2 S 11 19 6 10 - - 0.0
25/02:30pm 23.8 21.7 9.8 41 7.7 S 11 19 6 10 - - 0.0
25/02:00pm 23.4 21.9 10.5 44 7.2 WSW 9 17 5 9 - - 0.0
25/01:30pm 22.6 21.2 9.7 44 7.0 SW 7 13 4 7 - - 0.0
25/01:00pm 22.0 20.4 10.2 47 6.5 SW 9 13 5 7 - - 0.0
25/12:30pm 20.8 19.2 10.3 51 5.7 WSW 9 17 5 9 - - 0.0
25/12:00pm 20.1 18.9 10.2 53 5.4 S 7 13 4 7 - - 0.0
25/11:30am 19.3 18.0 10.0 55 5.0 SSE 7 13 4 7 - - 0.0
25/11:00am 17.7 16.4 9.3 58 4.4 SE 6 11 3 6 - - 0.0
25/10:30am 15.8 14.6 9.7 67 3.2 SE 6 11 3 6 - - 0.0
25/10:00am 14.7 12.9 9.5 71 2.7 S 9 15 5 8 - - 0.0
25/09:30am 14.9 12.4 9.7 71 2.7 SSE 13 19 7 10 - - 0.0
25/09:00am 14.1 11.7 10.1 77 2.1 S 13 19 7 10 - - 0.0
25/08:30am 13.4 10.1 9.6 78 2.0 S 17 26 9 14 - - 0.0
25/08:00am 12.6 9.7 9.6 82 1.5 SSE 15 22 8 12 - - 0.0
25/07:30am 12.2 8.9 9.6 84 1.3 SSE 17 24 9 13 - - 0.0
25/07:00am 12.1 10.0 9.7 85 1.2 SE 11 17 6 9 - - 0.0
25/06:30am 11.9 10.1 9.6 86 1.2 ESE 9 15 5 8 - - 0.0
25/06:00am 11.9 10.1 9.6 86 1.2 SE 9 19 5 10 - - 0.0
25/05:30am 12.0 10.3 9.7 86 1.2 ESE 9 15 5 8 - - 0.0
25/05:00am 12.0 9.5 9.7 86 1.2 SSE 13 19 7 10 - - 0.0
25/04:30am 12.0 8.7 9.7 86 1.2 SSE 17 22 9 12 - - 0.0
25/04:00am 12.0 9.1 9.7 86 1.2 SSE 15 24 8 13 - - 0.0
25/03:30am 12.0 9.1 9.7 86 1.2 S 15 19 8 10 - - 0.0
25/03:00am 12.3 9.5 10.0 86 1.2 SSE 15 22 8 12 - - 0.0
25/02:30am 12.2 9.0 10.1 87 1.1 SSE 17 24 9 13 - - 0.0
25/02:00am 11.6 10.0 10.2 91 0.7 SE 9 15 5 8 - - 0.0
25/01:30am 11.2 8.7 9.8 91 0.7 S 13 20 7 11 - - 0.0
25/01:00am 11.4 9.4 10.0 91 0.7 S 11 15 6 8 - - 0.0
25/12:30am 11.4 9.7 10.0 91 0.7 S 9 15 5 8 - - 0.0
25/12:00am 11.8 10.6 10.4 91 0.7 S 7 11 4 6 - - 0.0
 
Date/Time
EDT
Temp
°C
App
Temp
°C
Dew
Point
Rel
Hum
%
Delta-T
°C
Wind Press
QNH
hPa
Press
MSL
hPa
Rain
since 9 am
mm
Dir
 
Spd
km/h
Gust
km/h
Spd
kts
Gust
kts
24/11:30pm 12.4 11.3 10.8 90 0.8 S 7 11 4 6 - - 0.0
24/11:00pm 12.6 11.2 10.8 89 0.9 S 9 13 5 7 - - 0.0
24/10:30pm 13.3 11.9 11.0 86 1.2 S 9 13 5 7 - - 0.0
24/10:00pm 14.0 12.6 11.0 82 1.6 S 9 13 5 7 - - 0.0
24/09:30pm 15.4 14.1 11.4 77 2.2 SSW 9 15 5 8 - - 0.0
24/09:00pm 16.3 14.7 11.7 74 2.5 SSW 11 17 6 9 - - 0.0
24/08:30pm 17.0 16.3 12.1 73 2.7 SW 7 17 4 9 - - 0.0
24/08:00pm 18.5 17.1 12.3 67 3.5 SSW 11 17 6 9 - - 0.0
24/07:30pm 20.4 18.0 12.6 61 4.4 WSW 17 28 9 15 - - 0.0
24/07:00pm 24.0 20.7 8.0 36 8.5 WSW 15 24 8 13 - - 0.0
24/06:30pm 25.2 22.1 8.7 35 9.0 W 15 22 8 12 - - 0.0
24/06:00pm 26.0 22.3 8.0 32 9.7 W 17 24 9 13 - - 0.0
24/05:30pm 26.2 22.6 8.2 32 9.7 W 17 24 9 13 - - 0.0
24/05:00pm 26.9 23.4 8.8 32 9.9 W 17 28 9 15 - - 0.0
24/04:30pm 26.1 22.2 8.6 33 9.5 W 19 26 10 14 - - 0.0
24/04:00pm 25.3 22.0 9.6 37 8.7 W 17 26 9 14 - - 0.0
24/03:30pm 25.4 21.3 8.8 35 9.0 W 20 30 11 16 - - 0.0
24/03:00pm 25.4 21.3 10.1 38 8.5 W 22 33 12 18 - - 0.0
24/02:30pm 24.3 19.7 9.5 39 8.1 W 24 35 13 19 - - 0.0
24/02:00pm 23.7 20.1 10.0 42 7.6 W 19 32 10 17 - - 0.0
24/01:30pm 23.3 20.4 12.3 50 6.3 W 19 30 10 16 - - 0.0
24/01:00pm 21.7 19.6 12.3 55 5.3 W 15 24 8 13 - - 0.0
24/12:30pm 20.0 18.5 12.0 60 4.5 W 11 19 6 10 - - 0.0
24/12:00pm 18.8 16.7 12.5 67 3.5 W 15 22 8 12 - - 0.0
24/11:30am 17.2 14.3 12.3 73 2.7 WSW 19 26 10 14 - - 0.0
24/11:00am 17.3 14.0 12.8 75 2.5 W 22 32 12 17 - - 0.0
24/10:30am 16.6 14.4 13.3 81 1.9 W 17 24 9 13 - - 0.0
24/10:00am 15.3 14.6 13.3 88 1.1 WNW 9 13 5 7 - - 0.0
24/09:30am 13.9 12.8 13.0 94 0.5 WNW 11 15 6 8 - - 0.0
24/09:00am 13.1 13.2 12.6 97 0.3 WNW 4 6 2 3 - - 0.0
24/08:30am 12.5 12.8 12.2 98 0.2 NNW 2 4 1 2 - - 0.0
24/08:00am 11.6 11.6 11.3 98 0.2 WNW 2 6 1 3 - - 0.0
24/07:30am 10.2 9.8 9.7 97 0.3 NNW 2 4 1 2 - - 0.0
24/07:00am 9.6 9.4 9.1 97 0.2 CALM 0 2 0 1 - - 0.0
24/06:30am 9.5 8.1 9.0 97 0.2 ENE 6 7 3 4 - - 0.0
24/06:00am 9.8 8.5 9.3 97 0.2 ENE 6 7 3 4 - - 0.0
24/05:30am 9.3 8.3 8.7 96 0.3 ENE 4 4 2 2 - - 0.0
24/05:00am 10.2 9.4 9.7 97 0.3 NE 4 4 2 2 - - 0.0
24/04:30am 10.2 9.4 9.6 96 0.3 NE 4 6 2 3 - - 0.0
24/04:00am 10.8 10.9 10.0 95 0.4 CALM 0 0 0 0 - - 0.0
24/03:30am 10.7 10.7 9.8 94 0.5 CALM 0 0 0 0 - - 0.0
24/03:00am 11.5 11.7 10.7 95 0.4 CALM 0 0 0 0 - - 0.0
24/02:30am 11.1 11.2 10.2 94 0.5 CALM 0 0 0 0 - - 0.0
24/02:00am 12.2 12.6 11.4 95 0.4 CALM 0 0 0 0 - - 0.0
24/01:30am 12.3 12.8 11.5 95 0.4 CALM 0 2 0 1 - - 0.0
24/01:00am 12.1 11.7 11.0 93 0.6 WSW 4 4 2 2 - - 0.0
24/12:30am 13.8 13.8 12.5 92 0.7 S 4 4 2 2 - - 0.0
24/12:00am 14.4 14.6 13.0 91 0.8 SSE 4 6 2 3 - - 0.0
 
Date/Time
EDT
Temp
°C
App
Temp
°C
Dew
Point
Rel
Hum
%
Delta-T
°C
Wind Press
QNH
hPa
Press
MSL
hPa
Rain
since 9 am
mm
Dir
 
Spd
km/h
Gust
km/h
Spd
kts
Gust
kts
23/11:30pm 14.8 14.9 12.8 88 1.1 SSE 4 6 2 3 - - 0.0
23/11:00pm 15.8 16.1 13.3 85 1.4 S 4 4 2 2 - - 0.0
23/10:30pm 16.5 16.4 13.2 81 1.9 S 6 6 3 3 - - 0.0
23/10:00pm 17.8 17.6 13.7 77 2.3 SE 7 9 4 5 - - 0.0
23/09:30pm 17.9 17.9 13.6 76 2.5 S 6 7 3 4 - - 0.0
23/09:00pm 18.4 18.2 13.5 73 2.8 S 7 11 4 6 - - 0.0
23/08:30pm 19.4 19.3 13.8 70 3.2 S 7 11 4 6 - - 0.0
23/08:00pm 20.5 19.6 13.7 65 3.9 SSE 11 15 6 8 - - 0.0
23/07:30pm 21.8 20.4 13.4 59 4.9 S 13 17 7 9 - - 0.0
23/07:00pm 23.0 21.6 13.5 55 5.5 S 13 19 7 10 - - 0.0
23/06:30pm 24.1 22.2 13.0 50 6.5 SSE 15 20 8 11 - - 0.0
23/06:00pm 24.9 23.3 12.8 47 7.0 SSE 13 19 7 10 - - 0.0
23/05:30pm 25.5 24.3 12.7 45 7.5 SE 11 15 6 8 - - 0.0
23/05:00pm 25.7 24.5 12.9 45 7.5 SSE 11 17 6 9 - - 0.0
23/04:30pm 25.6 24.8 12.8 45 7.5 SE 9 19 5 10 - - 0.0
23/04:00pm 25.4 24.2 12.9 45 7.3 SSE 11 19 6 10 - - 0.0
23/03:30pm 24.6 23.1 11.9 45 7.3 SE 11 19 6 10 - - 0.0
23/03:00pm 24.5 22.7 12.1 46 7.1 ESE 13 19 7 10 - - 0.0
23/02:30pm 23.9 22.1 12.2 48 6.7 SE 13 22 7 12 - - 0.0
23/02:00pm 23.4 21.7 12.4 50 6.3 SE 13 26 7 14 - - 0.0
23/01:30pm 22.6 20.8 12.0 51 6.0 SE 13 20 7 11 - - 0.0
23/01:00pm 20.8 18.4 11.4 55 5.2 SE 15 22 8 12 - - 0.0
23/12:30pm 21.4 19.1 11.7 54 5.4 SE 15 24 8 13 - - 0.0
23/12:00pm 20.8 18.0 11.4 55 5.2 SE 17 26 9 14 - - 0.0
23/11:30am 18.6 15.3 10.9 61 4.2 SE 19 28 10 15 - - 0.0
23/11:00am 18.5 15.9 10.8 61 4.2 SE 15 22 8 12 - - 0.0
23/10:30am 17.6 14.3 10.9 65 3.6 SSE 19 28 10 15 - - 0.0
23/10:00am 16.6 13.2 10.5 67 3.3 SE 19 30 10 16 - - 0.0
23/09:30am 15.1 11.1 10.5 74 2.4 SSE 22 30 12 16 - - 0.0
23/09:00am 13.8 10.1 10.2 79 1.9 SE 20 30 11 16 - - 0.0
23/08:30am 13.9 10.9 10.5 80 1.8 SSE 17 28 9 15 - - 0.0
23/08:00am 12.9 9.8 10.3 84 1.4 SSE 17 30 9 16 - - 0.0
23/07:30am 12.5 9.0 10.2 86 1.2 SE 19 28 10 15 - - 0.0
23/07:00am 12.4 8.9 10.3 87 1.1 SSE 19 30 10 16 - - 0.0
23/06:30am 12.3 8.8 10.2 87 1.1 SE 19 32 10 17 - - 0.0
23/06:00am 12.4 8.4 10.3 87 1.1 SSE 22 33 12 18 - - 0.0
23/05:30am 12.4 8.4 10.5 88 1.0 SSE 22 32 12 17 - - 0.0
23/05:00am 12.5 8.5 10.4 87 1.1 SE 22 30 12 16 - - 0.0
23/04:30am 12.4 8.0 10.5 88 1.0 SSE 24 35 13 19 - - 0.0
23/04:00am 12.5 8.6 10.7 89 0.9 SSE 22 35 12 19 - - 0.0
23/03:30am 12.5 8.5 10.6 88 1.0 SSE 22 35 12 19 - - 0.0
23/03:00am 12.8 10.3 10.9 88 1.0 SSE 15 24 8 13 - - 0.0
23/02:30am 12.7 8.7 10.6 87 1.1 SSE 22 37 12 20 - - 0.0
23/02:00am 12.7 9.1 10.6 87 1.1 SSE 20 30 11 16 - - 0.0
23/01:30am 12.7 8.4 10.6 87 1.1 SSE 24 39 13 21 - - 0.0
23/01:00am 12.8 9.4 10.7 87 1.1 S 19 30 10 16 - - 0.0
23/12:30am 12.8 9.8 10.7 87 1.1 SSE 17 30 9 16 - - 0.0
23/12:00am 13.0 9.7 10.9 87 1.1 SSE 19 30 10 16 - - 0.0
 
Date/Time
EDT
Temp
°C
App
Temp
°C
Dew
Point
Rel
Hum
%
Delta-T
°C
Wind Press
QNH
hPa
Press
MSL
hPa
Rain
since 9 am
mm
Dir
 
Spd
km/h
Gust
km/h
Spd
kts
Gust
kts
22/11:30pm 13.0 9.7 10.9 87 1.1 SSE 19 30 10 16 - - 0.0
22/11:00pm 13.3 10.1 11.2 87 1.1 SSE 19 30 10 16 - - 0.0
22/10:30pm 14.1 10.5 11.8 86 1.2 SSE 22 30 12 16 - - 0.0
22/10:00pm 14.7 11.6 12.2 85 1.4 S 20 32 11 17 - - 0.0
22/09:30pm 15.1 12.8 11.9 81 1.7 S 15 24 8 13 - - 0.0
22/09:00pm 17.1 14.4 11.6 70 3.0 S 17 28 9 15 - - 0.0
22/08:30pm 17.8 15.1 11.6 67 3.4 S 17 22 9 12 - - 0.0
22/08:00pm 18.9 16.1 12.6 67 3.6 S 19 28 10 15 - - 0.0
22/07:30pm 21.2 18.8 12.6 58 4.9 S 17 28 9 15 - - 0.0
22/07:00pm 23.0 20.2 12.6 52 6.0 S 19 24 10 13 - - 0.0
22/06:30pm 24.6 21.5 11.5 44 7.4 S 19 28 10 15 - - 0.0
22/06:00pm 26.6 23.2 11.1 38 8.8 S 20 30 11 16 - - 0.0
22/05:30pm 29.0 26.4 12.0 35 9.9 SSW 17 26 9 14 - - 0.0

Other Formats:

Comma delimited format used in spreadsheet applications
http://www.bom.gov.au/fwo/IDV60801/IDV60801.95832.axf

JavaScript Object Notation format (JSON) in row-major order
http://www.bom.gov.au/fwo/IDV60801/IDV60801.95832.json